Terminal Aerodrome Forecast
Issued by NWS Charleston, WV

Current Version | Previous Version | Text Only | Print | Product List | Glossary Off
Versions: 1 2 3 4 5 6 7 8 9 10 11 12 13 14 15 16 17 18 19 20 21

000
FTUS41 KRLX 161720
TAFCRW
TAF
KCRW 161720Z 1618/1718 23009G18KT P6SM SKC
     FM162200 22006KT P6SM SKC
     FM170000 00000KT P6SM SKC
     FM171600 19004KT P6SM BKN120=

USA.gov is the U.S. government's official web portal to all federal, state and local government web resources and services.